createdAt,value
2022-11-26T00:02:06.852Z,19.91
2022-11-26T00:04:53.532Z,19.90
2022-11-26T00:07:40.844Z,19.90
2022-11-26T00:10:30.415Z,19.90
2022-11-26T00:13:18.843Z,19.89
2022-11-26T00:16:04.949Z,19.88
2022-11-26T00:18:50.189Z,19.88
2022-11-26T00:21:39.207Z,19.87
2022-11-26T00:24:29.691Z,19.87
2022-11-26T00:27:15.345Z,19.87
2022-11-26T00:30:00.660Z,19.87
2022-11-26T00:32:46.503Z,19.87
2022-11-26T00:35:31.638Z,19.86
2022-11-26T00:38:20.462Z,19.85
2022-11-26T00:41:12.533Z,19.85
2022-11-26T00:43:58.835Z,19.85
2022-11-26T00:46:44.453Z,19.85
2022-11-26T00:49:29.618Z,19.85
2022-11-26T00:52:33.004Z,19.85
2022-11-26T00:55:26.685Z,19.82
2022-11-26T00:58:23.720Z,19.84
2022-11-26T01:01:12.422Z,19.82
2022-11-26T01:03:58.910Z,19.82
2022-11-26T01:06:45.152Z,19.80
2022-11-26T01:09:30.341Z,19.80
2022-11-26T01:12:15.664Z,19.81
2022-11-26T01:15:00.964Z,19.81
2022-11-26T01:17:47.428Z,19.79
2022-11-26T01:20:32.753Z,19.81
2022-11-26T01:23:19.639Z,19.81
2022-11-26T01:26:06.647Z,19.80
2022-11-26T01:28:52.349Z,19.80
2022-11-26T01:31:37.978Z,19.82
2022-11-26T01:34:23.010Z,19.82
2022-11-26T01:37:14.095Z,19.82
2022-11-26T01:39:59.716Z,19.83
2022-11-26T01:42:49.611Z,19.83
2022-11-26T01:45:34.872Z,19.82
2022-11-26T01:48:27.159Z,19.82
2022-11-26T01:51:13.546Z,19.82
2022-11-26T01:54:00.759Z,19.82
2022-11-26T01:56:52.492Z,19.83
2022-11-26T01:59:42.545Z,19.81
2022-11-26T02:02:29.833Z,19.81
2022-11-26T02:05:19.887Z,19.81
2022-11-26T02:08:05.897Z,19.82
2022-11-26T02:10:52.801Z,19.81
2022-11-26T02:13:38.337Z,19.81
2022-11-26T02:16:36.341Z,19.80
2022-11-26T02:19:42.225Z,19.79
2022-11-26T02:22:48.981Z,19.79
2022-11-26T02:25:43.714Z,19.78
2022-11-26T02:28:50.126Z,19.79
2022-11-26T02:31:57.295Z,19.79
2022-11-26T02:34:56.819Z,19.78
2022-11-26T02:38:10.482Z,19.77
2022-11-26T02:40:56.669Z,19.78
2022-11-26T02:43:42.455Z,19.78
2022-11-26T02:46:29.488Z,19.78
2022-11-26T02:49:20.259Z,19.77
2022-11-26T02:52:09.920Z,19.77
2022-11-26T02:54:56.697Z,19.79
2022-11-26T02:57:48.704Z,19.79
2022-11-26T03:00:38.077Z,19.76
2022-11-26T03:03:28.008Z,19.78
2022-11-26T03:06:15.073Z,19.77
2022-11-26T03:09:01.012Z,19.76
2022-11-26T03:11:46.537Z,19.75
2022-11-26T03:14:31.723Z,19.75
2022-11-26T03:17:17.856Z,19.75
2022-11-26T03:20:04.150Z,19.75
2022-11-26T03:22:49.840Z,19.76
2022-11-26T03:25:35.334Z,19.76
2022-11-26T03:28:20.884Z,19.76
2022-11-26T03:31:06.141Z,19.76
2022-11-26T03:33:51.544Z,19.77
2022-11-26T03:36:37.165Z,19.77
2022-11-26T03:39:22.608Z,19.75
2022-11-26T03:42:07.953Z,19.75
2022-11-26T03:44:53.431Z,19.76
2022-11-26T03:47:39.364Z,19.76
2022-11-26T03:50:24.975Z,19.73
2022-11-26T03:53:10.201Z,19.73
2022-11-26T03:55:56.143Z,19.73
2022-11-26T03:58:41.425Z,19.71
2022-11-26T04:01:26.897Z,19.72
2022-11-26T04:04:12.213Z,19.72
2022-11-26T04:06:57.497Z,19.72
2022-11-26T04:09:42.996Z,19.72
2022-11-26T04:12:28.308Z,19.71
2022-11-26T04:15:13.605Z,19.70
2022-11-26T04:17:58.907Z,19.70
2022-11-26T04:20:46.645Z,19.70
2022-11-26T04:23:35.646Z,19.69
2022-11-26T04:26:21.383Z,19.69
2022-11-26T04:29:06.669Z,19.68
2022-11-26T04:31:52.311Z,19.68
2022-11-26T04:34:37.869Z,19.67
2022-11-26T04:37:23.470Z,19.67
2022-11-26T04:40:09.446Z,19.66
2022-11-26T04:42:54.934Z,19.65
2022-11-26T04:45:40.393Z,19.65
2022-11-26T04:48:26.345Z,19.67
2022-11-26T04:51:11.686Z,19.71
2022-11-26T04:54:01.628Z,19.73
2022-11-26T04:56:48.410Z,19.73
2022-11-26T04:59:33.707Z,19.81
2022-11-26T05:02:19.233Z,19.88
2022-11-26T05:05:04.791Z,19.89
2022-11-26T05:07:50.300Z,19.93
2022-11-26T05:10:35.676Z,19.96
2022-11-26T05:13:21.346Z,20.03
2022-11-26T05:16:07.072Z,20.09
2022-11-26T05:18:52.696Z,20.12
2022-11-26T05:21:38.052Z,20.15
2022-11-26T05:24:23.584Z,20.20
2022-11-26T05:27:09.293Z,20.23
2022-11-26T05:29:54.646Z,20.25
2022-11-26T05:32:39.863Z,20.27
2022-11-26T05:35:25.080Z,20.29
2022-11-26T05:38:10.525Z,20.29
2022-11-26T05:40:55.903Z,20.30
2022-11-26T05:43:41.541Z,20.29
2022-11-26T05:46:26.841Z,20.34
2022-11-26T05:49:12.737Z,20.41
2022-11-26T05:51:59.622Z,20.45
2022-11-26T05:54:44.764Z,20.49
2022-11-26T05:57:30.175Z,20.51
2022-11-26T06:00:16.001Z,20.53
2022-11-26T06:03:01.482Z,20.55
2022-11-26T06:05:47.286Z,20.54
2022-11-26T06:08:32.828Z,20.60
2022-11-26T06:11:18.455Z,20.63
2022-11-26T06:14:03.791Z,20.66
2022-11-26T06:16:49.269Z,20.70
2022-11-26T06:19:34.433Z,20.67
2022-11-26T06:22:19.761Z,20.64
2022-11-26T06:25:06.791Z,20.66
2022-11-26T06:27:52.277Z,20.69
2022-11-26T06:30:37.526Z,20.71
2022-11-26T06:33:22.953Z,20.73
2022-11-26T06:36:10.492Z,20.73
2022-11-26T06:38:56.073Z,20.75
2022-11-26T06:41:41.876Z,20.78
2022-11-26T06:44:27.165Z,20.77
2022-11-26T06:47:13.604Z,20.81
2022-11-26T06:49:59.164Z,20.81
2022-11-26T06:52:44.589Z,20.80
2022-11-26T06:55:30.211Z,20.82
2022-11-26T06:58:15.378Z,20.84
2022-11-26T07:01:00.697Z,20.85
2022-11-26T07:03:46.819Z,20.87
2022-11-26T07:06:33.643Z,20.90
2022-11-26T07:09:18.940Z,20.91
2022-11-26T07:12:04.366Z,20.91
2022-11-26T07:14:50.018Z,20.93
2022-11-26T07:17:35.216Z,20.93
2022-11-26T07:20:20.661Z,20.94
2022-11-26T07:23:06.524Z,20.96
2022-11-26T07:25:51.745Z,20.92
2022-11-26T07:28:37.928Z,20.87
2022-11-26T07:31:24.119Z,20.86
2022-11-26T07:34:09.659Z,20.84
2022-11-26T07:36:58.061Z,20.83
2022-11-26T07:39:43.843Z,20.85
2022-11-26T07:42:33.444Z,20.85
2022-11-26T07:45:18.708Z,20.84
2022-11-26T07:48:04.736Z,20.81
2022-11-26T07:50:50.339Z,20.80
2022-11-26T07:53:35.923Z,20.80
2022-11-26T07:56:21.312Z,20.75
2022-11-26T08:01:52.274Z,20.69
2022-11-26T08:04:37.737Z,20.69
2022-11-26T08:07:28.958Z,20.71
2022-11-26T08:10:15.346Z,20.74
2022-11-26T08:13:00.722Z,20.74
2022-11-26T08:15:48.737Z,20.76
2022-11-26T08:18:34.301Z,20.79
2022-11-26T08:21:19.804Z,20.75
2022-11-26T08:24:06.038Z,20.73
2022-11-26T08:26:51.474Z,20.71
2022-11-26T08:29:37.178Z,20.68
2022-11-26T08:32:22.491Z,20.68
2022-11-26T08:35:08.165Z,20.71
2022-11-26T08:40:39.125Z,20.73
2022-11-26T08:46:29.765Z,20.75
2022-11-26T08:49:15.444Z,20.79
2022-11-26T08:52:00.690Z,20.81
2022-11-26T08:54:46.502Z,20.81
2022-11-26T08:57:31.860Z,20.80
2022-11-26T09:00:17.805Z,20.80
2022-11-26T09:03:03.019Z,20.76
2022-11-26T09:05:48.878Z,20.76
2022-11-26T09:08:58.040Z,20.76
2022-11-26T09:11:45.716Z,20.77
2022-11-26T09:14:37.971Z,20.78
2022-11-26T09:17:23.386Z,20.77
2022-11-26T09:20:08.883Z,20.77
2022-11-26T09:22:54.389Z,20.82
2022-11-26T09:25:40.152Z,20.84
2022-11-26T09:28:25.533Z,20.86
2022-11-26T09:31:10.785Z,20.87
2022-11-26T09:33:57.991Z,20.85
2022-11-26T09:36:43.263Z,20.86
2022-11-26T09:39:28.598Z,20.87
2022-11-26T09:42:34.862Z,20.87
2022-11-26T09:45:43.603Z,20.86
2022-11-26T09:48:32.363Z,20.87
2022-11-26T09:51:20.470Z,20.90
2022-11-26T09:54:06.451Z,20.90
2022-11-26T09:57:06.349Z,20.87
2022-11-26T09:59:54.034Z,20.84
2022-11-26T10:02:39.770Z,20.85
2022-11-26T10:05:40.211Z,20.84
2022-11-26T10:08:50.467Z,20.85
2022-11-26T10:11:54.773Z,20.82
2022-11-26T10:14:43.324Z,20.87
2022-11-26T10:17:56.937Z,20.84
2022-11-26T10:20:50.869Z,20.86
2022-11-26T10:23:47.823Z,20.87
2022-11-26T10:26:38.388Z,20.87
2022-11-26T10:29:35.312Z,20.83
2022-11-26T10:32:39.701Z,20.85
2022-11-26T10:35:29.135Z,20.86
2022-11-26T10:38:14.845Z,20.87
2022-11-26T10:40:59.975Z,20.89
2022-11-26T10:43:45.245Z,20.88
2022-11-26T10:46:35.975Z,20.88
2022-11-26T10:49:29.490Z,20.88
2022-11-26T10:52:24.792Z,20.89
2022-11-26T10:55:22.344Z,20.90
2022-11-26T10:58:16.682Z,20.91
2022-11-26T11:01:06.991Z,20.88
2022-11-26T11:04:13.092Z,20.89
2022-11-26T11:06:58.645Z,20.94
2022-11-26T11:09:44.346Z,20.92
2022-11-26T11:12:29.732Z,20.93
2022-11-26T11:15:18.014Z,20.95
2022-11-26T11:18:06.800Z,20.96
2022-11-26T11:20:55.927Z,20.96
2022-11-26T11:24:06.993Z,20.96
2022-11-26T11:26:53.492Z,20.95
2022-11-26T11:29:39.446Z,20.94
2022-11-26T11:32:42.835Z,20.94
2022-11-26T11:35:31.425Z,20.94
2022-11-26T11:38:29.188Z,20.93
2022-11-26T11:41:32.760Z,20.94
2022-11-26T11:44:30.328Z,20.95
2022-11-26T11:47:22.372Z,20.95
2022-11-26T11:50:23.174Z,20.97
2022-11-26T11:53:34.906Z,20.97
2022-11-26T11:56:38.551Z,20.99
2022-11-26T11:59:37.544Z,20.98
2022-11-26T12:02:48.013Z,20.95
2022-11-26T12:05:58.045Z,20.94
2022-11-26T12:09:19.318Z,20.93
2022-11-26T12:12:20.221Z,20.93
2022-11-26T12:15:14.507Z,20.92
2022-11-26T12:18:12.391Z,20.89
2022-11-26T12:21:11.884Z,20.89
2022-11-26T12:24:05.178Z,20.90
2022-11-26T12:27:01.627Z,20.90
2022-11-26T12:29:53.624Z,20.90
2022-11-26T12:32:53.956Z,20.92
2022-11-26T12:35:48.393Z,20.89
2022-11-26T12:38:45.198Z,20.87
2022-11-26T12:41:58.886Z,20.86
2022-11-26T12:44:49.486Z,20.89
2022-11-26T12:47:40.983Z,20.88
2022-11-26T12:50:38.184Z,20.88
2022-11-26T12:53:36.621Z,20.88
2022-11-26T12:56:29.229Z,20.89
2022-11-26T12:59:22.244Z,20.89
2022-11-26T13:02:33.252Z,20.88
2022-11-26T13:05:57.804Z,20.88
2022-11-26T13:09:07.823Z,20.88
2022-11-26T13:12:06.060Z,20.89
2022-11-26T13:15:20.525Z,20.92
2022-11-26T13:18:18.074Z,20.93
2022-11-26T13:21:31.449Z,20.95
2022-11-26T13:24:33.516Z,20.93
2022-11-26T13:27:43.922Z,20.92
2022-11-26T13:30:54.209Z,20.93
2022-11-26T13:34:00.925Z,20.91
2022-11-26T13:37:16.565Z,20.92
2022-11-26T13:40:39.105Z,20.92
2022-11-26T13:43:39.853Z,20.91
2022-11-26T13:46:48.905Z,20.92
2022-11-26T13:49:43.352Z,20.89
2022-11-26T13:52:41.740Z,20.91
2022-11-26T13:55:43.365Z,20.91
2022-11-26T13:58:43.545Z,20.94
2022-11-26T14:01:40.381Z,20.92
2022-11-26T14:04:26.037Z,20.93
2022-11-26T14:07:11.330Z,20.96
2022-11-26T14:10:00.202Z,20.93
2022-11-26T14:13:03.866Z,20.96
2022-11-26T14:15:53.422Z,20.97
2022-11-26T14:18:53.774Z,21.02
2022-11-26T14:21:59.289Z,21.04
2022-11-26T14:24:50.467Z,21.08
2022-11-26T14:27:40.789Z,21.08
2022-11-26T14:30:28.008Z,21.08
2022-11-26T14:33:24.052Z,21.07
2022-11-26T14:36:21.442Z,21.06
2022-11-26T14:39:11.198Z,21.08
2022-11-26T14:42:04.089Z,21.06
2022-11-26T14:45:17.739Z,21.06
2022-11-26T14:48:04.272Z,21.07
2022-11-26T14:50:50.221Z,21.10
2022-11-26T14:53:40.239Z,21.12
2022-11-26T14:56:26.576Z,21.13
2022-11-26T14:59:16.879Z,21.10
2022-11-26T15:02:02.786Z,21.09
2022-11-26T15:05:01.351Z,21.12
2022-11-26T15:07:57.061Z,21.11
2022-11-26T15:11:06.730Z,21.11
2022-11-26T15:13:53.036Z,21.12
2022-11-26T15:16:39.848Z,21.15
2022-11-26T15:19:26.927Z,21.12
2022-11-26T15:22:28.483Z,21.13
2022-11-26T15:25:29.928Z,21.13
2022-11-26T15:28:19.394Z,21.13
2022-11-26T15:31:08.529Z,21.14
2022-11-26T15:33:54.037Z,21.14
2022-11-26T15:36:39.696Z,21.14
2022-11-26T15:39:31.136Z,21.12
2022-11-26T15:42:28.332Z,21.09
2022-11-26T15:45:16.937Z,21.06
2022-11-26T15:48:04.048Z,21.06
2022-11-26T15:50:55.105Z,21.05
2022-11-26T15:53:46.537Z,21.04
2022-11-26T15:56:37.040Z,21.04
2022-11-26T15:59:26.033Z,21.05
2022-11-26T16:02:31.477Z,21.05
2022-11-26T16:05:29.573Z,21.06
2022-11-26T16:08:30.330Z,21.05
2022-11-26T16:11:20.992Z,21.04
2022-11-26T16:14:22.495Z,21.06
2022-11-26T16:17:17.470Z,21.03
2022-11-26T16:20:03.424Z,21.01
2022-11-26T16:22:51.707Z,21.04
2022-11-26T16:25:38.131Z,21.09
2022-11-26T16:28:23.805Z,21.11
2022-11-26T16:31:09.253Z,21.09
2022-11-26T16:33:55.419Z,21.12
2022-11-26T16:36:42.760Z,21.10
2022-11-26T16:39:32.116Z,21.08
2022-11-26T16:42:23.422Z,21.06
2022-11-26T16:45:11.425Z,21.06
2022-11-26T16:47:57.423Z,21.08
2022-11-26T16:50:43.306Z,21.12
2022-11-26T16:53:29.061Z,21.11
2022-11-26T16:56:29.028Z,21.09
2022-11-26T16:59:21.812Z,21.08
2022-11-26T17:02:18.756Z,21.07
2022-11-26T17:05:05.485Z,21.09
2022-11-26T17:07:59.215Z,21.06
2022-11-26T17:10:47.483Z,21.09
2022-11-26T17:13:33.335Z,21.04
2022-11-26T17:16:21.152Z,21.07
2022-11-26T17:19:12.436Z,21.04
2022-11-26T17:21:57.697Z,21.03
2022-11-26T17:24:43.139Z,21.06
2022-11-26T17:27:28.463Z,21.02
2022-11-26T17:30:17.967Z,21.04
2022-11-26T17:33:03.831Z,21.07
2022-11-26T17:35:49.398Z,21.09
2022-11-26T17:38:34.584Z,21.08
2022-11-26T17:41:20.617Z,21.09
2022-11-26T17:44:06.310Z,21.07
2022-11-26T17:47:15.940Z,21.09
2022-11-26T17:50:01.353Z,21.13
2022-11-26T17:52:47.275Z,21.09
2022-11-26T17:55:32.846Z,21.08
2022-11-26T17:58:18.789Z,21.12
2022-11-26T18:01:04.760Z,21.09
2022-11-26T18:03:52.550Z,21.08
2022-11-26T18:07:06.190Z,21.08
2022-11-26T18:09:51.855Z,21.10
2022-11-26T18:12:37.497Z,21.11
2022-11-26T18:15:29.164Z,21.11
2022-11-26T18:18:14.794Z,21.14
2022-11-26T18:21:00.275Z,21.13
2022-11-26T18:23:48.266Z,21.14
2022-11-26T18:26:33.937Z,21.13
2022-11-26T18:29:19.579Z,21.13
2022-11-26T18:32:06.999Z,21.16
2022-11-26T18:34:52.553Z,21.12
2022-11-26T18:37:40.159Z,21.18
2022-11-26T18:40:25.685Z,21.21
2022-11-26T18:43:10.969Z,21.19
2022-11-26T18:45:57.144Z,21.25
2022-11-26T18:48:49.866Z,21.25
2022-11-26T18:51:36.333Z,21.27
2022-11-26T18:54:21.870Z,21.28
2022-11-26T18:57:07.277Z,21.27
2022-11-26T18:59:52.507Z,21.28
2022-11-26T19:02:39.556Z,21.26
2022-11-26T19:05:26.480Z,21.27
2022-11-26T19:08:13.875Z,21.27
2022-11-26T19:11:00.193Z,21.27
2022-11-26T19:13:47.961Z,21.30
2022-11-26T19:16:34.320Z,21.29
2022-11-26T19:19:20.618Z,21.27
2022-11-26T19:22:06.070Z,21.25
2022-11-26T19:24:51.376Z,21.24
2022-11-26T19:27:36.603Z,21.29
2022-11-26T19:30:21.932Z,21.28
2022-11-26T19:33:07.924Z,21.34
2022-11-26T19:35:53.848Z,21.37
2022-11-26T19:38:39.607Z,21.38
2022-11-26T19:41:26.153Z,21.38
2022-11-26T19:44:11.874Z,21.41
2022-11-26T19:46:57.390Z,21.41
2022-11-26T19:49:42.731Z,21.37
2022-11-26T19:52:27.993Z,21.39
2022-11-26T19:55:13.252Z,21.38
2022-11-26T19:57:58.503Z,21.36
2022-11-26T20:00:43.668Z,21.36
2022-11-26T20:03:34.226Z,21.36
2022-11-26T20:06:26.733Z,21.36
2022-11-26T20:09:13.877Z,21.35
2022-11-26T20:11:59.310Z,21.34
2022-11-26T20:14:44.709Z,21.34
2022-11-26T20:17:30.002Z,21.34
2022-11-26T20:20:15.425Z,21.33
2022-11-26T20:23:00.929Z,21.32
2022-11-26T20:25:46.222Z,21.30
2022-11-26T20:28:31.720Z,21.27
2022-11-26T20:31:23.045Z,21.24
2022-11-26T20:34:09.025Z,21.24
2022-11-26T20:36:54.743Z,21.22
2022-11-26T20:39:40.449Z,21.22
2022-11-26T20:42:26.149Z,21.16
2022-11-26T20:45:13.155Z,21.18
2022-11-26T20:47:58.378Z,21.14
2022-11-26T20:50:43.555Z,21.12
2022-11-26T20:53:29.466Z,21.09
2022-11-26T20:56:14.837Z,21.05
2022-11-26T20:59:01.236Z,21.06
2022-11-26T21:01:46.607Z,21.04
2022-11-26T21:04:32.052Z,21.02
2022-11-26T21:07:18.512Z,21.02
2022-11-26T21:10:04.181Z,21.02
2022-11-26T21:12:49.730Z,21.00
2022-11-26T21:15:35.067Z,20.99
2022-11-26T21:18:20.586Z,20.99
2022-11-26T21:21:15.352Z,20.95
2022-11-26T21:24:04.596Z,20.93
2022-11-26T21:26:50.164Z,20.91
2022-11-26T21:29:35.349Z,20.89
2022-11-26T21:32:20.745Z,20.86
2022-11-26T21:35:06.510Z,20.85
2022-11-26T21:37:51.852Z,20.83
2022-11-26T21:40:37.341Z,20.83
2022-11-26T21:43:22.396Z,20.80
2022-11-26T21:46:10.029Z,20.75
2022-11-26T21:48:57.122Z,20.79
2022-11-26T21:51:42.530Z,20.79
2022-11-26T21:54:28.297Z,20.78
2022-11-26T21:57:13.521Z,20.75
2022-11-26T21:59:58.760Z,20.72
2022-11-26T22:02:44.005Z,20.70
2022-11-26T22:05:29.046Z,20.70
2022-11-26T22:08:14.441Z,20.70
2022-11-26T22:10:59.761Z,20.66
2022-11-26T22:13:45.552Z,20.64
2022-11-26T22:16:31.608Z,20.61
2022-11-26T22:19:17.343Z,20.63
2022-11-26T22:22:02.949Z,20.62
2022-11-26T22:24:49.312Z,20.63
2022-11-26T22:27:34.651Z,20.61
2022-11-26T22:30:20.740Z,20.62
2022-11-26T22:33:06.129Z,20.62
2022-11-26T22:35:51.508Z,20.61
2022-11-26T22:38:38.453Z,20.64
2022-11-26T22:41:24.370Z,20.63
2022-11-26T22:44:10.165Z,20.64
2022-11-26T22:46:55.811Z,20.64
2022-11-26T22:49:43.669Z,20.61
2022-11-26T22:52:29.018Z,20.59
2022-11-26T22:55:14.405Z,20.60
2022-11-26T22:57:59.723Z,20.61
2022-11-26T23:01:08.823Z,20.60
2022-11-26T23:03:55.631Z,20.61
2022-11-26T23:06:41.530Z,20.59
2022-11-26T23:09:26.962Z,20.57
2022-11-26T23:12:12.272Z,20.55
2022-11-26T23:14:57.583Z,20.54
2022-11-26T23:17:42.739Z,20.55
2022-11-26T23:20:28.097Z,20.53
2022-11-26T23:23:13.931Z,20.52
2022-11-26T23:26:02.069Z,20.57
2022-11-26T23:28:47.625Z,20.56
2022-11-26T23:31:36.184Z,20.57
2022-11-26T23:34:21.219Z,20.58
2022-11-26T23:37:06.555Z,20.55
2022-11-26T23:39:51.919Z,20.53
2022-11-26T23:42:37.242Z,20.51
2022-11-26T23:45:23.093Z,20.50
2022-11-26T23:48:08.470Z,20.47
2022-11-26T23:50:53.785Z,20.45
2022-11-26T23:53:41.534Z,20.41
2022-11-26T23:56:29.469Z,20.37
2022-11-26T23:59:15.101Z,20.32
